Time;durP1;ratioP1;P1;durP2;ratioP2;P2;SDS_P1;SDS_P2;PMS_P1;PMS_P2;Temp;Humidity;BMP_temperature;BMP_pressure;BME280_temperature;BME280_humidity;BME280_pressure;Samples;Min_cycle;Max_cycle;Signal;HPM_P1;HPM_P2
2022/03/13 00:10:28;;;;;;;44.8;66.3;;;;;;;-4.8;56.9;99830;;;;
2022/03/13 00:20:28;;;;;;;44.8;66.3;;;;;;;-5;57.7;99820;;;;
2022/03/13 00:31:28;;;;;;;46.1;71.6;;;;;;;-5.1;57.1;99820;;;;
2022/03/13 00:42:28;;;;;;;46.1;71.6;;;;;;;-5.1;59;99810;;;;
2022/03/13 00:52:28;;;;;;;38;64.1;;;;;;;-4.8;58.9;99810;;;;
2022/03/13 01:02:28;;;;;;;38;64.1;;;;;;;-4.8;58.1;99800;;;;
2022/03/13 01:12:28;;;;;;;38;64.1;;;;;;;-4.9;57.6;99800;;;;
2022/03/13 01:23:28;;;;;;;42.3;71.8;;;;;;;-5.1;58.8;99800;;;;
2022/03/13 01:33:28;;;;;;;42.3;71.8;;;;;;;-5.2;58.6;99780;;;;
2022/03/13 01:44:28;;;;;;;42.3;71.8;;;;;;;-5.2;59;99770;;;;
2022/03/13 01:55:28;;;;;;;31.9;52.4;;;;;;;-5.2;59.8;99750;;;;
2022/03/13 02:06:28;;;;;;;31.9;52.4;;;;;;;-5.2;60;99750;;;;
2022/03/13 02:17:28;;;;;;;31.9;52.4;;;;;;;-5.3;60.7;99740;;;;
2022/03/13 02:27:29;;;;;;;40.7;64.5;;;;;;;-5.4;61.3;99740;;;;
2022/03/13 02:37:28;;;;;;;40.7;64.5;;;;;;;-5.4;62.4;99740;;;;
2022/03/13 02:48:28;;;;;;;40.7;64.5;;;;;;;-5.4;62.3;99730;;;;
2022/03/13 02:58:28;;;;;;;36.5;58.3;;;;;;;-5.5;62.7;99740;;;;
2022/03/13 03:09:29;;;;;;;36.5;58.3;;;;;;;-5.6;63.3;99730;;;;
2022/03/13 03:20:28;;;;;;;28.6;58.3;;;;;;;-5.6;63.4;99730;;;;
2022/03/13 03:30:28;;;;;;;28.6;49.5;;;;;;;-5.6;63.1;99730;;;;
2022/03/13 03:41:28;;;;;;;28.6;49.5;;;;;;;-5.5;62.5;99730;;;;
2022/03/13 03:51:28;;;;;;;26.5;47.1;;;;;;;-5.4;63;99740;;;;
2022/03/13 04:02:28;;;;;;;26.5;47.1;;;;;;;-5.5;63;99730;;;;
2022/03/13 04:12:28;;;;;;;26.5;47.1;;;;;;;-5.5;62.9;99720;;;;
2022/03/13 04:23:28;;;;;;;33.6;58.1;;;;;;;-5.5;62.8;99720;;;;
2022/03/13 04:33:28;;;;;;;33.6;58.1;;;;;;;-5.9;66.3;99730;;;;
2022/03/13 04:43:28;;;;;;;33.6;58.1;;;;;;;-5.8;64.9;99730;;;;
2022/03/13 04:54:28;;;;;;;32.7;51.9;;;;;;;-5.8;64.9;99740;;;;
2022/03/13 05:05:28;;;;;;;32.7;51.9;;;;;;;-5.9;67.2;99730;;;;
2022/03/13 05:16:28;;;;;;;32.7;51.9;;;;;;;-5.8;67.3;99720;;;;
2022/03/13 05:26:28;;;;;;;34.7;60.8;;;;;;;-5.6;67.1;99730;;;;
2022/03/13 05:37:28;;;;;;;34.7;60.8;;;;;;;-5.6;69.5;99760;;;;
2022/03/13 05:48:30;;;;;;;34.7;60.8;;;;;;;-5.1;69.1;99750;;;;
2022/03/13 05:58:28;;;;;;;34.3;54.2;;;;;;;-4.4;68.4;99760;;;;
2022/03/13 06:09:28;;;;;;;34.3;54.2;;;;;;;-3.8;67.4;99770;;;;
2022/03/13 06:20:28;;;;;;;60;81;;;;;;;-3.3;67.1;99770;;;;
2022/03/13 06:30:29;;;;;;;60;81;;;;;;;-3;67.2;99770;;;;
2022/03/13 06:41:28;;;;;;;60;81;;;;;;;-2.3;66.6;99780;;;;
2022/03/13 06:51:28;;;;;;;88.8;108.6;;;;;;;-1.9;65.9;99780;;;;
2022/03/13 07:01:28;;;;;;;88.8;108.6;;;;;;;-1.5;63.1;99790;;;;
2022/03/13 07:11:30;;;;;;;88.8;108.6;;;;;;;-1;63;99790;;;;
2022/03/13 07:22:28;;;;;;;83.7;96.7;;;;;;;-0.5;63.8;99800;;;;
2022/03/13 07:32:28;;;;;;;83.7;96.7;;;;;;;0;63.8;99790;;;;
2022/03/13 07:42:28;;;;;;;83.7;96.7;;;;;;;0.5;62.9;99800;;;;
2022/03/13 07:52:28;;;;;;;68.1;78.1;;;;;;;1.1;60.8;99780;;;;
2022/03/13 08:02:31;;;;;;;68.1;78.1;;;;;;;1.8;58;99800;;;;
2022/03/13 08:12:28;;;;;;;68.1;78.1;;;;;;;1.9;55.2;99800;;;;
2022/03/13 08:23:28;;;;;;;57.8;75.2;;;;;;;3;53.7;99790;;;;
2022/03/13 08:34:39;;;;;;;57.8;75.2;;;;;;;3.5;49.3;99790;;;;
2022/03/13 08:44:28;;;;;;;57.8;75.2;;;;;;;3.9;48.7;99790;;;;
2022/03/13 08:54:28;;;;;;;43.9;53.1;;;;;;;4.4;47;99770;;;;
2022/03/13 09:05:28;;;;;;;43.9;53.1;;;;;;;4.6;45.4;99790;;;;
2022/03/13 09:15:28;;;;;;;43.9;53.1;;;;;;;5.6;44;99780;;;;
2022/03/13 09:25:28;;;;;;;37.1;46.6;;;;;;;6;41.6;99780;;;;
2022/03/13 09:35:28;;;;;;;37.1;46.6;;;;;;;6.5;40;99780;;;;
2022/03/13 09:45:29;;;;;;;37.1;46.6;;;;;;;6.4;39.6;99780;;;;
2022/03/13 09:56:29;;;;;;;44.3;50.4;;;;;;;6.3;40.1;99760;;;;
2022/03/13 10:07:28;;;;;;;44.3;50.4;;;;;;;6.7;39.3;99750;;;;
2022/03/13 10:17:28;;;;;;;44.3;50.4;;;;;;;7.2;36.6;99740;;;;
2022/03/13 10:28:30;;;;;;;42.2;49.7;;;;;;;7.4;34.8;99730;;;;
2022/03/13 10:38:28;;;;;;;42.2;49.7;;;;;;;7.7;32;99720;;;;
2022/03/13 10:49:29;;;;;;;19.5;25.3;;;;;;;8;26.7;99720;;;;
2022/03/13 10:59:29;;;;;;;19.5;25.3;;;;;;;8;26;99720;;;;
2022/03/13 11:09:28;;;;;;;19.5;25.3;;;;;;;8.4;29.1;99720;;;;
2022/03/13 11:19:29;;;;;;;14.9;19.6;;;;;;;8.3;28.5;99720;;;;
2022/03/13 11:30:29;;;;;;;14.9;19.6;;;;;;;8.6;25.8;99710;;;;
2022/03/13 11:40:28;;;;;;;14.9;19.6;;;;;;;8.9;23.9;99700;;;;
2022/03/13 11:50:28;;;;;;;11.6;15.8;;;;;;;9;23.5;99690;;;;
2022/03/13 12:01:28;;;;;;;11.6;15.8;;;;;;;9.2;21.5;99670;;;;
2022/03/13 12:12:29;;;;;;;11.6;15.8;;;;;;;9.4;21.2;99660;;;;
2022/03/13 12:22:30;;;;;;;7.9;11.2;;;;;;;9.3;21.9;99660;;;;
2022/03/13 12:33:31;;;;;;;7.9;11.2;;;;;;;9;22.6;99650;;;;
2022/03/13 12:44:29;;;;;;;7.9;11.2;;;;;;;9.2;21.4;99650;;;;
2022/03/13 12:54:29;;;;;;;12.7;17.4;;;;;;;9.4;22;99650;;;;
2022/03/13 13:05:29;;;;;;;12.7;17.4;;;;;;;9.6;20.9;99650;;;;
2022/03/13 13:16:29;;;;;;;12.7;17.4;;;;;;;9.7;20.2;99640;;;;
2022/03/13 13:27:28;;;;;;;10.1;13.1;;;;;;;9.5;19.8;99640;;;;
2022/03/13 13:37:28;;;;;;;10.1;13.1;;;;;;;9.5;19.9;99630;;;;
2022/03/13 13:48:29;;;;;;;11.3;16.3;;;;;;;9.8;19.6;99640;;;;
2022/03/13 13:59:29;;;;;;;11.3;16.3;;;;;;;9.6;19.2;99640;;;;
2022/03/13 14:09:29;;;;;;;11.3;16.3;;;;;;;9.9;20.3;99630;;;;
2022/03/13 14:20:28;;;;;;;9.4;13.2;;;;;;;9.9;21.2;99630;;;;
2022/03/13 14:30:28;;;;;;;9.4;13.2;;;;;;;10;22.1;99630;;;;
2022/03/13 14:40:28;;;;;;;9.4;13.2;;;;;;;9.9;23.2;99630;;;;
2022/03/13 14:51:28;;;;;;;8.8;11.5;;;;;;;10;23.6;99630;;;;
2022/03/13 15:01:28;;;;;;;8.8;11.5;;;;;;;9.9;23.7;99620;;;;
2022/03/13 15:12:28;;;;;;;8.8;11.5;;;;;;;9.6;24.6;99630;;;;
2022/03/13 15:22:28;;;;;;;9.7;11.5;;;;;;;9.5;25;99640;;;;
2022/03/13 15:33:28;;;;;;;9.7;11.5;;;;;;;9.2;25.6;99640;;;;
2022/03/13 15:43:29;;;;;;;9.7;11.5;;;;;;;9.3;26.1;99640;;;;
2022/03/13 15:54:28;;;;;;;15.9;18.7;;;;;;;10.5;25.2;99650;;;;
2022/03/13 16:04:28;;;;;;;15.9;18.7;;;;;;;10;25.7;99650;;;;
2022/03/13 16:15:28;;;;;;;15.9;18.7;;;;;;;9.4;26.8;99660;;;;
2022/03/13 16:26:29;;;;;;;35.9;47.6;;;;;;;8.2;28.1;99670;;;;
2022/03/13 16:37:28;;;;;;;35.9;47.6;;;;;;;7.2;29.7;99680;;;;
2022/03/13 16:48:28;;;;;;;22.6;27;;;;;;;6.7;30.3;99690;;;;
2022/03/13 16:58:29;;;;;;;22.6;27;;;;;;;6.3;30.9;99700;;;;
2022/03/13 17:09:29;;;;;;;22.6;27;;;;;;;5.9;32;99700;;;;
2022/03/13 17:19:29;;;;;;;18.3;24.9;;;;;;;5.4;33.2;99700;;;;
2022/03/13 17:30:28;;;;;;;18.3;24.9;;;;;;;5;34.4;99720;;;;
2022/03/13 17:41:28;;;;;;;18.3;24.9;;;;;;;4.6;35.5;99720;;;;
2022/03/13 17:52:28;;;;;;;39.6;45.2;;;;;;;4.2;36.9;99730;;;;
2022/03/13 18:02:28;;;;;;;39.6;45.2;;;;;;;3.9;38;99730;;;;
2022/03/13 18:13:28;;;;;;;39.6;45.2;;;;;;;3.4;39.1;99740;;;;
2022/03/13 18:24:28;;;;;;;30;36.8;;;;;;;3;40.7;99740;;;;
2022/03/13 18:35:28;;;;;;;30;36.8;;;;;;;2.6;42.5;99750;;;;
2022/03/13 18:46:29;;;;;;;30;36.8;;;;;;;2.3;43.4;99760;;;;
2022/03/13 18:57:29;;;;;;;34.8;42.3;;;;;;;2.6;45.4;99770;;;;
2022/03/13 19:08:29;;;;;;;34.8;42.3;;;;;;;3;45.3;99760;;;;
2022/03/13 19:18:29;;;;;;;26.2;32.1;;;;;;;2.9;45.8;99770;;;;
2022/03/13 19:29:29;;;;;;;26.2;32.1;;;;;;;3.1;46.1;99780;;;;
2022/03/13 19:40:29;;;;;;;26.2;32.1;;;;;;;3;47.1;99780;;;;
2022/03/13 19:51:29;;;;;;;27.4;32.6;;;;;;;2.7;48;99790;;;;
2022/03/13 20:01:29;;;;;;;27.4;32.6;;;;;;;2.4;49;99790;;;;
2022/03/13 20:12:29;;;;;;;27.4;32.6;;;;;;;2.3;50.7;99780;;;;
2022/03/13 20:22:29;;;;;;;26.4;30.7;;;;;;;2.1;51.5;99790;;;;
2022/03/13 20:32:29;;;;;;;26.4;30.7;;;;;;;2.1;52.5;99790;;;;
2022/03/13 20:42:29;;;;;;;26.4;30.7;;;;;;;1.8;53.6;99790;;;;
2022/03/13 20:52:29;;;;;;;28;33.3;;;;;;;1.7;54.4;99800;;;;
2022/03/13 21:02:29;;;;;;;28;33.3;;;;;;;1.3;55.1;99810;;;;
2022/03/13 21:12:29;;;;;;;28;33.3;;;;;;;1;55.7;99810;;;;
2022/03/13 21:22:29;;;;;;;28.6;33.8;;;;;;;0.6;56.8;99810;;;;
2022/03/13 21:32:29;;;;;;;28.6;33.8;;;;;;;0.3;58.7;99810;;;;
2022/03/13 21:42:29;;;;;;;28.6;33.8;;;;;;;0;59.7;99810;;;;
2022/03/13 21:53:29;;;;;;;31.7;40.5;;;;;;;-0.1;62.4;99810;;;;
2022/03/13 22:03:29;;;;;;;31.7;40.5;;;;;;;-0.4;62.1;99820;;;;
2022/03/13 22:14:31;;;;;;;31.7;40.5;;;;;;;-0.9;61.5;99810;;;;
2022/03/13 22:24:29;;;;;;;30.3;38.7;;;;;;;-1.1;62.9;99820;;;;
2022/03/13 22:35:29;;;;;;;30.3;38.7;;;;;;;-1.3;65.2;99820;;;;
2022/03/13 22:45:29;;;;;;;30.3;38.7;;;;;;;-1.5;67.1;99810;;;;
2022/03/13 22:55:29;;;;;;;31.8;41;;;;;;;-1.7;66.8;99810;;;;
2022/03/13 23:05:31;;;;;;;31.8;41;;;;;;;-1.8;68;99820;;;;
2022/03/13 23:16:29;;;;;;;31.8;41;;;;;;;-2;68.2;99820;;;;
2022/03/13 23:27:29;;;;;;;29;37.6;;;;;;;-2.1;68.6;99810;;;;
2022/03/13 23:37:29;;;;;;;29;37.6;;;;;;;-2.2;68.7;99810;;;;
2022/03/13 23:47:29;;;;;;;29.7;41.1;;;;;;;-2.4;68.6;99830;;;;
2022/03/13 23:57:29;;;;;;;29.7;41.1;;;;;;;-2.6;69.1;99820;;;;
